Time;durP1;ratioP1;P1;durP2;ratioP2;P2;SDS_P1;SDS_P2;PMS_P1;PMS_P2;Temp;Humidity;BMP_temperature;BMP_pressure;BME280_temperature;BME280_humidity;BME280_pressure;Samples;Min_cycle;Max_cycle;Signal;HPM_P1;HPM_P2
2022/10/21 00:02:20;;;;;;;4.10;3.00;;;21.20;55.80;;;;;;5056604;28;20044;-53
2022/10/21 00:04:46;;;;;;;3.72;3.03;;;21.20;55.90;;;;;;5055357;28;20028;-53
2022/10/21 00:07:12;;;;;;;4.35;3.13;;;21.20;55.90;;;;;;5054573;28;20131;-51
2022/10/21 00:09:38;;;;;;;2.80;2.50;;;21.20;55.90;;;;;;5047567;28;20029;-53
2022/10/21 00:12:03;;;;;;;3.95;2.88;;;21.20;55.90;;;;;;5043112;28;20090;-54
2022/10/21 00:14:29;;;;;;;3.17;2.70;;;21.20;55.90;;;;;;5048035;28;20467;-54
2022/10/21 00:16:55;;;;;;;3.65;3.05;;;21.20;56.00;;;;;;5055591;28;20036;-53
2022/10/21 00:19:21;;;;;;;3.97;2.95;;;21.10;55.90;;;;;;5052793;28;20032;-55
2022/10/21 00:21:47;;;;;;;3.88;2.88;;;21.10;56.00;;;;;;5055141;28;20360;-53
2022/10/21 00:24:13;;;;;;;3.20;2.90;;;21.20;56.10;;;;;;5054836;28;20037;-54
2022/10/21 00:26:38;;;;;;;4.45;2.90;;;21.20;56.10;;;;;;5055270;28;20029;-54
2022/10/21 00:29:04;;;;;;;3.55;2.80;;;21.20;56.10;;;;;;5055644;28;20357;-51
2022/10/21 00:31:30;;;;;;;3.72;2.83;;;21.10;56.10;;;;;;5055960;28;20029;-51
2022/10/21 00:33:56;;;;;;;3.58;3.20;;;21.10;56.10;;;;;;5053557;28;20419;-52
2022/10/21 00:36:22;;;;;;;3.20;2.90;;;21.10;56.10;;;;;;5053485;28;20368;-51
2022/10/21 00:38:48;;;;;;;3.72;3.00;;;21.10;56.10;;;;;;5055964;28;20041;-50
2022/10/21 00:41:16;;;;;;;4.18;3.15;;;21.10;56.20;;;;;;5054720;28;20032;-51
2022/10/21 00:44:04;;;;;;;3.50;2.55;;;21.10;56.20;;;;;;5053584;28;20029;-51
2022/10/21 00:46:42;;;;;;;3.33;2.80;;;21.10;56.30;;;;;;5048176;28;20040;-55
2022/10/21 00:49:29;;;;;;;4.25;3.00;;;21.10;56.30;;;;;;5054633;28;20040;-54
2022/10/21 00:51:59;;;;;;;4.82;3.22;;;21.10;56.30;;;;;;5050567;28;20039;-50
2022/10/21 00:54:26;;;;;;;5.15;2.80;;;21.10;56.40;;;;;;5053582;28;20037;-53
2022/10/21 00:56:55;;;;;;;3.85;3.08;;;21.10;56.40;;;;;;5055576;28;20400;-54
2022/10/21 00:59:24;;;;;;;3.58;2.92;;;21.10;56.40;;;;;;5035616;28;20091;-51
2022/10/21 01:01:50;;;;;;;3.25;2.95;;;21.10;56.40;;;;;;5036181;28;20033;-50
2022/10/21 01:04:16;;;;;;;4.95;3.33;;;21.10;56.40;;;;;;5047041;28;20032;-56
2022/10/21 01:06:42;;;;;;;3.17;2.65;;;21.10;56.50;;;;;;5052701;28;20036;-54
2022/10/21 01:09:08;;;;;;;3.15;2.75;;;21.10;56.50;;;;;;5054118;28;20037;-54
2022/10/21 01:11:46;;;;;;;3.00;2.70;;;21.10;56.60;;;;;;5054528;28;20035;-54
2022/10/21 01:14:32;;;;;;;4.70;2.90;;;21.10;56.60;;;;;;5053926;28;20526;-53
2022/10/21 01:17:35;;;;;;;5.40;3.22;;;21.10;56.60;;;;;;5053269;28;20048;-54
2022/10/21 01:20:29;;;;;;;3.88;2.88;;;21.10;56.60;;;;;;5042123;28;20059;-56
2022/10/21 01:23:42;;;;;;;4.18;3.15;;;21.10;56.60;;;;;;5054002;28;20036;-51
2022/10/21 01:26:20;;;;;;;3.90;3.28;;;21.10;56.60;;;;;;4994284;28;20472;-51
2022/10/21 01:29:15;;;;;;;3.40;3.00;;;21.10;56.60;;;;;;5035575;28;20037;-47
2022/10/21 01:32:19;;;;;;;3.72;3.00;;;21.10;56.60;;;;;;5038824;28;20040;-48
2022/10/21 01:35:11;;;;;;;3.40;3.10;;;21.10;56.70;;;;;;5028300;28;20114;-50
2022/10/21 01:38:08;;;;;;;3.83;3.05;;;21.10;56.70;;;;;;5053993;28;20036;-50
2022/10/21 01:40:43;;;;;;;4.68;3.13;;;21.10;56.70;;;;;;5053258;28;20036;-53
2022/10/21 01:43:31;;;;;;;3.40;2.92;;;21.00;56.70;;;;;;5054228;28;20086;-52
2022/10/21 01:46:02;;;;;;;3.53;3.22;;;21.10;56.80;;;;;;5054323;28;20094;-51
2022/10/21 01:48:32;;;;;;;3.67;3.00;;;21.00;56.70;;;;;;5054790;28;20090;-54
2022/10/21 01:51:01;;;;;;;3.35;2.80;;;21.10;56.80;;;;;;5046724;28;20018;-53
2022/10/21 01:53:40;;;;;;;3.70;3.10;;;21.10;56.80;;;;;;5046078;28;20037;-53
2022/10/21 01:56:08;;;;;;;3.58;3.00;;;21.10;56.90;;;;;;5054632;28;20057;-53
2022/10/21 01:58:36;;;;;;;3.33;3.00;;;21.10;56.90;;;;;;5053149;28;20089;-51
2022/10/21 02:01:05;;;;;;;5.45;3.80;;;21.10;56.80;;;;;;5054561;28;20049;-55
2022/10/21 02:03:37;;;;;;;4.30;3.05;;;21.00;56.80;;;;;;5052376;28;20025;-53
2022/10/21 02:06:04;;;;;;;4.97;3.20;;;21.10;56.90;;;;;;5053629;28;20037;-51
2022/10/21 02:08:30;;;;;;;4.47;2.88;;;21.10;57.10;;;;;;5052694;28;20448;-49
2022/10/21 02:11:00;;;;;;;4.88;3.10;;;21.10;56.80;;;;;;5053514;28;20078;-54
2022/10/21 02:13:32;;;;;;;4.95;3.05;;;21.10;56.80;;;;;;5053468;28;20053;-52
2022/10/21 02:16:02;;;;;;;3.90;3.22;;;21.10;56.80;;;;;;5039081;28;20029;-53
2022/10/21 02:18:28;;;;;;;3.80;3.40;;;21.10;56.90;;;;;;5036862;28;20696;-55
2022/10/21 02:20:58;;;;;;;3.35;2.90;;;21.10;56.90;;;;;;5052006;28;20478;-52
2022/10/21 02:23:40;;;;;;;3.97;2.97;;;21.00;56.80;;;;;;5052531;28;20043;-52
2022/10/21 02:26:06;;;;;;;3.80;3.00;;;21.00;56.80;;;;;;5053760;28;20139;-48
2022/10/21 02:28:32;;;;;;;4.55;3.33;;;21.00;56.80;;;;;;5054122;28;20068;-50
2022/10/21 02:31:22;;;;;;;3.50;2.90;;;21.00;56.80;;;;;;5054751;28;20487;-53
2022/10/21 02:34:09;;;;;;;3.70;3.00;;;21.00;56.80;;;;;;5053304;28;20033;-53
2022/10/21 02:36:35;;;;;;;3.63;2.80;;;21.10;56.90;;;;;;5040958;28;20111;-50
2022/10/21 02:39:12;;;;;;;4.07;2.90;;;21.00;56.80;;;;;;5043229;28;20029;-52
2022/10/21 02:41:41;;;;;;;5.30;3.05;;;21.00;56.80;;;;;;5052512;28;20444;-51
2022/10/21 02:44:07;;;;;;;4.00;3.22;;;21.00;56.90;;;;;;5047149;28;20024;-53
2022/10/21 02:46:41;;;;;;;5.35;2.90;;;21.00;56.90;;;;;;5053553;28;20466;-54
2022/10/21 02:49:07;;;;;;;4.93;3.13;;;21.00;57.50;;;;;;5057611;28;20040;-50
2022/10/21 02:51:34;;;;;;;3.88;2.95;;;21.00;56.90;;;;;;5057135;28;20040;-50
2022/10/21 02:54:00;;;;;;;5.30;3.33;;;21.00;56.90;;;;;;5049091;28;20041;-50
2022/10/21 02:56:26;;;;;;;4.03;3.20;;;21.00;56.90;;;;;;5057506;28;20040;-50
2022/10/21 02:58:52;;;;;;;5.82;3.42;;;21.00;56.90;;;;;;5052041;28;20441;-52
2022/10/21 03:01:18;;;;;;;4.10;3.30;;;21.00;56.90;;;;;;5042390;28;20060;-48
2022/10/21 03:03:44;;;;;;;4.18;3.28;;;21.00;56.90;;;;;;5055948;28;20400;-50
2022/10/21 03:06:11;;;;;;;3.45;3.10;;;21.00;56.80;;;;;;5056605;28;20120;-52
2022/10/21 03:08:37;;;;;;;3.80;3.25;;;21.00;56.80;;;;;;5047531;28;20021;-53
2022/10/21 03:11:03;;;;;;;4.97;3.50;;;21.00;56.80;;;;;;5057399;28;20031;-55
2022/10/21 03:13:29;;;;;;;4.55;3.33;;;21.00;56.70;;;;;;5056120;28;20045;-52
2022/10/21 03:15:54;;;;;;;4.32;3.30;;;21.00;56.70;;;;;;5057225;28;20029;-54
2022/10/21 03:18:20;;;;;;;4.15;3.30;;;21.00;56.70;;;;;;5056080;28;20029;-55
2022/10/21 03:20:50;;;;;;;4.05;3.30;;;21.00;56.80;;;;;;5056191;28;20051;-53
2022/10/21 03:23:19;;;;;;;4.38;3.42;;;21.00;56.80;;;;;;5055815;28;20076;-56
2022/10/21 03:25:46;;;;;;;4.30;3.13;;;21.00;56.80;;;;;;5056448;28;20040;-52
2022/10/21 03:28:12;;;;;;;3.60;3.30;;;21.00;56.80;;;;;;5057031;28;20035;-54
2022/10/21 03:30:38;;;;;;;5.35;3.53;;;21.00;56.80;;;;;;5057135;28;20029;-54
2022/10/21 03:33:04;;;;;;;3.83;3.03;;;21.00;56.80;;;;;;5051475;28;20097;-53
2022/10/21 03:35:30;;;;;;;3.88;2.95;;;21.00;56.80;;;;;;5056759;28;20064;-54
2022/10/21 03:37:56;;;;;;;5.43;2.88;;;21.00;56.80;;;;;;5057207;28;20440;-52
2022/10/21 03:40:28;;;;;;;6.10;3.08;;;21.00;56.80;;;;;;5051760;28;20032;-51
2022/10/21 03:42:55;;;;;;;3.97;2.97;;;21.00;56.90;;;;;;5054553;28;20040;-52
2022/10/21 03:45:21;;;;;;;3.35;3.05;;;21.00;56.90;;;;;;5055996;28;20075;-50
2022/10/21 03:47:47;;;;;;;4.80;3.42;;;21.00;56.90;;;;;;5055769;28;20075;-51
2022/10/21 03:50:13;;;;;;;5.45;3.50;;;21.00;56.90;;;;;;5050885;28;20033;-55
2022/10/21 03:52:39;;;;;;;4.93;3.20;;;21.00;56.90;;;;;;5036789;28;20471;-55
2022/10/21 03:55:05;;;;;;;5.47;3.22;;;21.00;56.80;;;;;;5055483;28;20036;-53
2022/10/21 03:57:31;;;;;;;3.17;2.80;;;21.00;56.80;;;;;;5055872;28;20047;-54
2022/10/21 03:59:57;;;;;;;4.53;3.33;;;21.00;56.70;;;;;;5056071;28;20123;-54
2022/10/21 04:02:22;;;;;;;4.20;2.90;;;21.00;56.70;;;;;;5055550;28;20360;-54
2022/10/21 04:04:48;;;;;;;3.03;2.63;;;20.90;56.60;;;;;;5053973;28;20441;-52
2022/10/21 04:07:14;;;;;;;4.50;3.60;;;21.00;56.60;;;;;;5050285;28;20025;-52
2022/10/21 04:09:40;;;;;;;5.38;3.47;;;20.90;56.50;;;;;;5049709;28;20044;-51
2022/10/21 04:12:06;;;;;;;3.33;2.80;;;21.00;56.60;;;;;;5056022;28;20029;-51
2022/10/21 04:14:31;;;;;;;4.43;3.10;;;21.00;56.60;;;;;;5054930;28;20435;-53
2022/10/21 04:16:57;;;;;;;2.78;2.53;;;20.90;56.50;;;;;;5055775;28;20041;-52
2022/10/21 04:19:23;;;;;;;2.97;2.67;;;20.90;56.50;;;;;;5054988;28;20472;-55
2022/10/21 04:21:49;;;;;;;3.67;3.25;;;20.90;56.50;;;;;;5054505;28;20112;-55
2022/10/21 04:24:15;;;;;;;4.40;3.10;;;20.90;56.50;;;;;;5054362;28;20021;-53
2022/10/21 04:26:41;;;;;;;3.95;3.22;;;20.90;56.50;;;;;;5049202;28;20112;-53
2022/10/21 04:29:07;;;;;;;5.00;3.00;;;20.90;56.50;;;;;;5039200;28;20029;-52
2022/10/21 04:31:33;;;;;;;4.88;3.22;;;20.90;56.50;;;;;;5054434;28;20037;-55
2022/10/21 04:33:59;;;;;;;3.63;2.88;;;20.90;56.50;;;;;;5054633;28;20021;-56
2022/10/21 04:36:25;;;;;;;4.30;2.92;;;20.90;56.60;;;;;;5055760;28;20060;-55
2022/10/21 04:38:51;;;;;;;3.33;2.65;;;20.90;56.50;;;;;;5055796;28;20033;-53
2022/10/21 04:41:17;;;;;;;3.75;2.90;;;20.90;56.50;;;;;;5053088;28;20067;-54
2022/10/21 04:43:42;;;;;;;3.35;2.80;;;20.90;56.60;;;;;;5054444;28;20108;-51
2022/10/21 04:46:10;;;;;;;3.67;2.88;;;20.90;56.60;;;;;;5054576;28;20163;-55
2022/10/21 04:48:36;;;;;;;3.72;2.78;;;20.90;56.50;;;;;;5054159;28;20452;-57
2022/10/21 04:51:02;;;;;;;3.10;2.78;;;20.90;56.50;;;;;;5056314;28;20380;-55
2022/10/21 04:53:28;;;;;;;5.85;3.20;;;20.90;56.50;;;;;;5054747;28;20036;-50
2022/10/21 04:55:54;;;;;;;4.45;2.78;;;20.90;56.50;;;;;;5054999;28;20083;-51
2022/10/21 04:58:21;;;;;;;3.75;2.78;;;20.90;56.50;;;;;;5052085;28;20029;-52
2022/10/21 05:00:47;;;;;;;3.72;2.78;;;20.90;56.50;;;;;;5035217;28;20107;-54
2022/10/21 05:03:14;;;;;;;3.15;2.70;;;20.90;56.50;;;;;;5046565;28;20086;-54
2022/10/21 05:05:40;;;;;;;4.47;3.03;;;20.90;56.50;;;;;;5035042;28;20035;-55
2022/10/21 05:08:05;;;;;;;4.05;2.67;;;20.90;56.50;;;;;;5035073;28;20034;-54
2022/10/21 05:10:31;;;;;;;3.92;2.78;;;20.90;56.40;;;;;;5053822;28;20033;-54
2022/10/21 05:12:57;;;;;;;3.90;2.85;;;20.90;56.40;;;;;;5052974;28;20356;-50
2022/10/21 05:15:24;;;;;;;4.30;3.00;;;20.90;56.40;;;;;;5054137;28;20408;-53
2022/10/21 05:17:51;;;;;;;4.07;2.97;;;20.90;56.40;;;;;;5054680;28;20029;-54
2022/10/21 05:20:18;;;;;;;4.05;2.80;;;20.90;56.40;;;;;;5052546;28;20515;-50
2022/10/21 05:22:44;;;;;;;6.00;2.50;;;20.90;56.40;;;;;;5053958;28;20036;-55
2022/10/21 05:25:10;;;;;;;3.60;2.80;;;20.90;56.40;;;;;;5053859;28;20029;-51
2022/10/21 05:27:36;;;;;;;3.28;2.97;;;20.90;56.40;;;;;;5055078;28;20163;-53
2022/10/21 05:30:03;;;;;;;3.47;2.60;;;20.90;56.40;;;;;;5053055;28;20380;-55
2022/10/21 05:32:29;;;;;;;3.53;2.85;;;20.90;56.40;;;;;;5038919;28;20028;-54
2022/10/21 05:34:55;;;;;;;4.80;3.00;;;20.90;56.40;;;;;;5053119;28;20036;-55
2022/10/21 05:37:21;;;;;;;3.00;2.72;;;20.90;56.40;;;;;;5055101;28;20048;-56
2022/10/21 05:39:46;;;;;;;3.90;3.08;;;20.90;56.40;;;;;;5054980;28;20120;-54
2022/10/21 05:42:12;;;;;;;3.05;2.75;;;20.90;56.40;;;;;;5053730;28;20123;-52
2022/10/21 05:44:38;;;;;;;4.32;3.25;;;20.80;56.30;;;;;;5053814;28;20025;-53
2022/10/21 05:47:04;;;;;;;3.70;2.40;;;20.90;56.40;;;;;;5053416;28;20107;-53
2022/10/21 05:49:29;;;;;;;4.03;3.08;;;20.80;56.40;;;;;;5051878;28;20029;-51
2022/10/21 05:51:55;;;;;;;3.85;2.70;;;20.90;56.50;;;;;;5040401;28;20313;-52
2022/10/21 05:54:21;;;;;;;3.97;2.97;;;20.80;56.40;;;;;;5047080;28;20075;-56
2022/10/21 05:56:47;;;;;;;4.05;2.97;;;20.80;56.50;;;;;;5053261;28;20349;-54
2022/10/21 05:59:13;;;;;;;4.03;2.67;;;20.80;56.50;;;;;;5054998;28;20025;-56
2022/10/21 06:01:39;;;;;;;3.17;2.70;;;20.80;56.50;;;;;;5054303;28;20341;-55
2022/10/21 06:04:06;;;;;;;4.18;2.78;;;20.80;56.50;;;;;;5052506;28;20439;-53
2022/10/21 06:06:32;;;;;;;3.30;2.60;;;20.90;56.60;;;;;;5051667;28;20037;-49
2022/10/21 06:08:57;;;;;;;3.55;2.90;;;20.90;56.60;;;;;;5040562;28;20433;-54
2022/10/21 06:11:23;;;;;;;3.67;2.58;;;20.90;56.60;;;;;;5053197;28;20364;-55
2022/10/21 06:13:49;;;;;;;6.25;2.90;;;20.80;56.50;;;;;;5054636;28;20103;-54
2022/10/21 06:16:16;;;;;;;3.20;2.60;;;20.80;56.50;;;;;;5052420;28;20363;-51
2022/10/21 06:18:48;;;;;;;3.88;2.70;;;20.90;56.60;;;;;;5047222;28;20083;-50
2022/10/21 06:21:14;;;;;;;6.38;2.63;;;20.80;56.50;;;;;;5055496;28;20045;-61
2022/10/21 06:23:40;;;;;;;5.43;3.17;;;20.80;57.20;;;;;;5057310;28;20048;-50
2022/10/21 06:26:11;;;;;;;5.47;2.55;;;20.80;56.50;;;;;;5053922;28;20040;-55
2022/10/21 06:28:40;;;;;;;5.28;3.25;;;20.90;56.60;;;;;;5038855;28;20091;-52
2022/10/21 06:31:07;;;;;;;4.50;2.80;;;20.80;56.60;;;;;;5042884;28;20041;-55
2022/10/21 06:33:33;;;;;;;4.50;3.15;;;20.80;56.60;;;;;;5057047;28;20017;-55
2022/10/21 06:35:59;;;;;;;3.92;2.80;;;20.80;56.60;;;;;;5057754;28;20347;-54
2022/10/21 06:38:25;;;;;;;4.90;3.17;;;20.80;56.50;;;;;;5055547;28;20108;-55
2022/10/21 06:40:59;;;;;;;4.38;3.00;;;20.80;56.50;;;;;;5053347;28;20041;-55
2022/10/21 06:43:24;;;;;;;3.75;3.00;;;20.80;56.50;;;;;;5043178;28;20061;-55
2022/10/21 06:45:50;;;;;;;3.45;2.97;;;20.80;56.50;;;;;;5056672;28;20063;-54
2022/10/21 06:48:16;;;;;;;7.38;3.30;;;20.80;56.60;;;;;;5048386;28;20033;-53
2022/10/21 06:50:42;;;;;;;4.82;2.75;;;20.90;56.70;;;;;;5048571;28;20091;-53
2022/10/21 06:53:08;;;;;;;4.78;3.20;;;20.80;56.70;;;;;;5056992;28;20036;-55
2022/10/21 06:55:34;;;;;;;7.45;3.53;;;20.90;56.80;;;;;;5054202;28;20437;-56
2022/10/21 06:58:00;;;;;;;8.88;4.50;;;20.80;56.80;;;;;;5057161;28;20091;-51
2022/10/21 07:00:25;;;;;;;13.35;4.90;;;20.80;56.90;;;;;;5054848;28;20139;-52
2022/10/21 07:02:51;;;;;;;8.50;4.97;;;20.90;57.00;;;;;;5052037;28;20033;-54
2022/10/21 07:05:17;;;;;;;10.98;5.07;;;20.90;57.00;;;;;;5057549;28;20044;-52
2022/10/21 07:07:43;;;;;;;9.20;4.93;;;20.80;57.00;;;;;;5057360;28;20029;-53
2022/10/21 07:10:09;;;;;;;8.20;4.70;;;20.80;57.10;;;;;;5043643;28;20057;-53
2022/10/21 07:12:35;;;;;;;7.57;4.55;;;20.80;57.10;;;;;;5046886;28;20056;-54
2022/10/21 07:15:00;;;;;;;10.52;4.57;;;20.80;57.10;;;;;;5051037;28;20045;-52
2022/10/21 07:17:29;;;;;;;9.48;4.57;;;20.80;57.10;;;;;;5051620;28;20028;-55
2022/10/21 07:19:55;;;;;;;9.70;5.20;;;20.80;57.10;;;;;;5049418;28;20051;-52
2022/10/21 07:22:21;;;;;;;8.82;4.65;;;20.80;57.10;;;;;;5051006;28;20029;-54
2022/10/21 07:24:46;;;;;;;6.35;4.45;;;20.80;57.10;;;;;;5051152;28;20021;-55
2022/10/21 07:27:12;;;;;;;8.40;4.80;;;20.90;57.20;;;;;;5049669;28;22197;-54
2022/10/21 07:29:38;;;;;;;7.95;4.80;;;20.90;57.20;;;;;;5049359;28;20340;-54
2022/10/21 07:32:04;;;;;;;8.57;4.53;;;20.80;57.10;;;;;;5055155;28;20031;-52
2022/10/21 07:34:30;;;;;;;7.93;4.07;;;20.80;57.10;;;;;;5042612;28;20040;-51
2022/10/21 07:36:57;;;;;;;9.77;4.70;;;20.90;57.20;;;;;;5048336;28;20022;-54
2022/10/21 07:39:25;;;;;;;9.75;4.55;;;20.90;57.20;;;;;;5053116;28;20083;-51
2022/10/21 07:41:54;;;;;;;7.60;4.43;;;20.90;57.20;;;;;;5055058;28;20110;-54
2022/10/21 07:44:22;;;;;;;8.73;4.53;;;20.90;57.20;;;;;;5051004;28;20090;-54
2022/10/21 07:46:49;;;;;;;6.72;4.43;;;20.90;57.20;;;;;;5050299;28;20033;-54
2022/10/21 07:49:16;;;;;;;6.22;4.07;;;20.90;57.20;;;;;;5042895;28;20477;-54
2022/10/21 07:51:44;;;;;;;8.23;4.38;;;20.90;57.20;;;;;;5039061;28;20025;-51
2022/10/21 07:54:13;;;;;;;8.30;4.90;;;20.90;57.10;;;;;;5039192;28;20040;-51
2022/10/21 07:56:41;;;;;;;7.55;4.03;;;20.90;57.00;;;;;;5037850;28;20021;-54
2022/10/21 07:59:07;;;;;;;7.25;3.97;;;20.90;57.00;;;;;;5056896;28;20340;-53
2022/10/21 08:01:35;;;;;;;6.13;3.42;;;20.90;56.90;;;;;;5054668;28;20052;-54
2022/10/21 08:04:01;;;;;;;6.78;3.85;;;20.90;56.90;;;;;;5056234;28;20029;-55
2022/10/21 08:06:27;;;;;;;8.52;3.97;;;20.90;56.80;;;;;;5043695;28;20052;-52
2022/10/21 08:08:57;;;;;;;6.20;3.90;;;20.90;56.80;;;;;;5041007;28;20025;-53
2022/10/21 08:11:29;;;;;;;6.55;3.80;;;20.90;56.80;;;;;;5056572;28;20036;-55
2022/10/21 08:13:55;;;;;;;6.55;4.35;;;20.90;56.80;;;;;;5056042;28;20139;-54
2022/10/21 08:16:21;;;;;;;5.53;3.70;;;20.90;56.80;;;;;;5055003;28;20028;-55
2022/10/21 08:18:48;;;;;;;5.50;3.38;;;20.90;56.80;;;;;;5051957;28;20053;-53
2022/10/21 08:21:13;;;;;;;5.03;3.50;;;20.90;56.80;;;;;;5036338;28;20127;-55
2022/10/21 08:23:39;;;;;;;4.07;2.92;;;20.90;56.80;;;;;;5035605;28;20412;-55
2022/10/21 08:26:10;;;;;;;4.97;3.30;;;20.90;56.80;;;;;;5035840;28;20033;-56
2022/10/21 08:28:36;;;;;;;4.53;3.17;;;20.90;56.90;;;;;;5039645;28;20625;-51
2022/10/21 08:31:13;;;;;;;6.43;3.13;;;20.90;56.90;;;;;;5036167;28;20033;-53
2022/10/21 08:33:39;;;;;;;5.55;3.67;;;20.90;56.90;;;;;;5047666;28;20345;-52
2022/10/21 08:36:07;;;;;;;4.90;3.15;;;20.90;57.00;;;;;;5054694;28;20033;-52
2022/10/21 08:38:33;;;;;;;5.03;3.17;;;20.90;57.00;;;;;;5054466;28;20033;-54
2022/10/21 08:41:00;;;;;;;3.72;2.63;;;20.90;57.00;;;;;;5055641;28;20043;-55
2022/10/21 08:43:34;;;;;;;5.05;2.53;;;20.90;57.10;;;;;;5055489;28;20520;-52
2022/10/21 08:45:59;;;;;;;3.85;2.90;;;20.90;57.10;;;;;;5053456;28;20025;-50
2022/10/21 08:48:32;;;;;;;4.75;3.03;;;20.90;57.10;;;;;;5048940;28;20037;-55
2022/10/21 08:50:59;;;;;;;5.97;2.80;;;20.90;57.20;;;;;;5054843;28;20016;-54
2022/10/21 08:53:46;;;;;;;4.80;2.97;;;20.90;57.20;;;;;;5050502;28;20457;-52
2022/10/21 08:56:13;;;;;;;4.55;2.58;;;20.90;57.20;;;;;;5054434;28;20029;-50
2022/10/21 08:58:39;;;;;;;5.57;3.05;;;20.90;57.20;;;;;;5054362;28;20037;-53
2022/10/21 09:01:14;;;;;;;4.22;3.03;;;20.90;57.40;;;;;;5052307;28;20049;-53
2022/10/21 09:03:53;;;;;;;4.45;3.00;;;20.90;57.40;;;;;;5044905;28;20038;-54
2022/10/21 09:06:50;;;;;;;2.95;2.42;;;20.90;57.40;;;;;;5038269;28;20040;-54
2022/10/21 09:09:50;;;;;;;4.40;2.72;;;20.90;57.40;;;;;;5051718;28;20431;-51
2022/10/21 09:12:40;;;;;;;4.15;2.67;;;20.90;57.50;;;;;;5054918;28;20111;-54
2022/10/21 09:15:31;;;;;;;3.58;2.65;;;20.90;57.50;;;;;;5050289;28;20037;-53
2022/10/21 09:18:29;;;;;;;3.83;2.40;;;20.90;57.60;;;;;;5054711;28;20064;-51
2022/10/21 09:21:15;;;;;;;4.10;2.42;;;20.90;57.70;;;;;;5037309;28;20435;-51
2022/10/21 09:24:12;;;;;;;6.80;2.85;;;20.90;57.70;;;;;;5055284;28;20106;-50
2022/10/21 09:26:46;;;;;;;3.80;2.60;;;20.90;57.70;;;;;;5054377;28;20036;-52
2022/10/21 09:29:29;;;;;;;4.32;2.70;;;20.90;57.80;;;;;;5043363;28;20068;-54
2022/10/21 09:32:04;;;;;;;3.80;2.67;;;20.90;57.80;;;;;;5054906;28;20463;-50
2022/10/21 09:35:12;;;;;;;4.00;2.60;;;20.90;57.80;;;;;;5053980;28;20448;-54
2022/10/21 09:37:44;;;;;;;2.90;2.20;;;20.90;57.80;;;;;;5015531;28;20041;-52
2022/10/21 09:40:23;;;;;;;3.72;2.38;;;21.00;57.90;;;;;;5054685;28;20127;-54
2022/10/21 09:42:54;;;;;;;2.95;2.40;;;20.90;58.00;;;;;;5051849;28;20108;-54
2022/10/21 09:45:29;;;;;;;2.85;2.10;;;21.00;58.00;;;;;;5054360;28;20087;-54
2022/10/21 09:48:02;;;;;;;4.10;2.33;;;20.90;58.60;;;;;;5045234;28;20460;-55
2022/10/21 09:50:28;;;;;;;3.53;2.50;;;21.00;58.10;;;;;;5046508;28;20103;-55
2022/10/21 09:53:00;;;;;;;3.17;2.70;;;21.00;58.20;;;;;;5049824;28;20460;-54
2022/10/21 09:55:29;;;;;;;3.35;2.40;;;21.00;58.20;;;;;;5048988;28;20040;-54
2022/10/21 09:58:00;;;;;;;3.80;2.30;;;21.00;58.30;;;;;;5056768;28;20204;-54
2022/10/21 10:00:46;;;;;;;3.40;1.95;;;21.00;58.30;;;;;;5054409;28;20087;-49
2022/10/21 10:03:12;;;;;;;4.90;2.13;;;21.00;58.30;;;;;;5054212;28;20044;-54
2022/10/21 10:05:46;;;;;;;3.85;2.30;;;21.00;58.40;;;;;;5056911;28;20463;-54
2022/10/21 10:08:29;;;;;;;4.80;2.75;;;21.00;58.50;;;;;;5056767;28;20029;-54
2022/10/21 10:11:21;;;;;;;2.85;2.00;;;21.00;58.50;;;;;;5064207;28;20044;-54
2022/10/21 10:13:52;;;;;;;3.70;2.42;;;21.00;58.50;;;;;;5059514;28;20059;-54
2022/10/21 10:16:26;;;;;;;3.95;2.17;;;21.00;58.60;;;;;;5055556;28;20059;-50
2022/10/21 10:19:17;;;;;;;3.83;2.50;;;21.00;58.70;;;;;;5053497;28;20047;-51
2022/10/21 10:21:44;;;;;;;4.75;2.40;;;21.00;58.80;;;;;;5055479;28;20060;-51
2022/10/21 10:24:19;;;;;;;3.00;1.92;;;21.00;58.90;;;;;;5055394;28;20127;-49
2022/10/21 10:26:45;;;;;;;;;;;21.00;59.00;;;;;;5057587;28;20048;-53
2022/10/21 10:29:14;;;;;;;4.15;2.40;;;21.00;59.10;;;;;;5056954;28;19908;-50
2022/10/21 10:31:53;;;;;;;3.63;1.80;;;21.00;59.20;;;;;;5055930;28;20021;-50
2022/10/21 10:34:36;;;;;;;3.47;2.22;;;21.00;59.20;;;;;;5054564;28;20039;-55
2022/10/21 10:37:15;;;;;;;4.28;2.20;;;21.10;59.40;;;;;;5051848;28;20352;-51
2022/10/21 10:39:45;;;;;;;4.88;2.63;;;21.10;59.40;;;;;;5055076;28;20047;-52
2022/10/21 10:42:17;;;;;;;4.47;2.38;;;21.10;59.50;;;;;;5055566;28;20286;-51
2022/10/21 10:44:43;;;;;;;4.43;1.92;;;21.10;59.60;;;;;;5058879;28;20024;-49
2022/10/21 10:47:30;;;;;;;4.03;2.13;;;21.10;59.70;;;;;;5056560;28;20111;-52
2022/10/21 10:49:56;;;;;;;5.20;2.28;;;21.10;59.60;;;;;;5043485;28;20039;-55
2022/10/21 10:52:23;;;;;;;5.25;2.33;;;21.10;59.60;;;;;;5062329;28;20108;-55
2022/10/21 10:55:27;;;;;;;3.85;2.22;;;21.10;59.70;;;;;;5063817;28;20025;-54
2022/10/21 10:57:54;;;;;;;4.35;2.10;;;21.10;59.90;;;;;;4995198;28;20045;-51
2022/10/21 11:00:22;;;;;;;3.70;1.90;;;21.10;60.00;;;;;;4992818;28;20042;-55
2022/10/21 11:03:05;;;;;;;4.88;2.30;;;21.10;60.10;;;;;;5011750;28;20041;-49
2022/10/21 11:05:40;;;;;;;6.05;2.40;;;21.10;60.20;;;;;;5056500;28;20044;-48
2022/10/21 11:08:12;;;;;;;4.38;2.15;;;21.10;60.50;;;;;;5048160;28;20040;-49
2022/10/21 11:10:46;;;;;;;5.72;2.10;;;21.10;60.70;;;;;;5050860;28;20028;-50
2022/10/21 11:13:20;;;;;;;4.55;1.83;;;21.20;61.10;;;;;;5043781;28;20475;-47
2022/10/21 11:15:56;;;;;;;4.97;2.10;;;21.20;61.20;;;;;;5055667;28;20036;-47
2022/10/21 11:18:31;;;;;;;4.95;2.00;;;21.20;61.20;;;;;;5056740;28;20037;-49
2022/10/21 11:21:16;;;;;;;3.83;1.88;;;21.30;61.20;;;;;;5057022;28;20044;-50
2022/10/21 11:23:42;;;;;;;3.08;2.28;;;21.20;61.20;;;;;;5052308;28;20036;-47
2022/10/21 11:26:45;;;;;;;6.80;2.13;;;21.30;61.20;;;;;;5049838;28;20024;-49
2022/10/21 11:29:39;;;;;;;2.85;1.60;;;21.30;61.10;;;;;;5045142;28;20067;-51
2022/10/21 11:32:29;;;;;;;3.00;1.77;;;21.30;60.90;;;;;;5044575;28;20041;-46
2022/10/21 11:35:16;;;;;;;3.97;1.80;;;21.30;60.80;;;;;;5043366;28;20037;-48
2022/10/21 11:37:51;;;;;;;3.13;1.63;;;21.30;60.60;;;;;;5051545;28;20040;-50
2022/10/21 11:40:20;;;;;;;2.42;1.90;;;21.30;60.50;;;;;;5055241;28;20925;-46
2022/10/21 11:42:49;;;;;;;4.32;2.25;;;21.30;60.40;;;;;;5046178;28;20051;-47
2022/10/21 11:45:28;;;;;;;2.75;1.77;;;21.30;60.30;;;;;;5045188;28;21598;-51
2022/10/21 11:48:09;;;;;;;2.83;1.38;;;21.40;60.30;;;;;;5044776;28;20382;-51
2022/10/21 11:50:44;;;;;;;2.53;1.73;;;21.30;60.20;;;;;;5044854;28;20044;-48
2022/10/21 11:53:31;;;;;;;3.08;1.73;;;21.40;60.20;;;;;;5046639;28;20426;-49
2022/10/21 11:56:30;;;;;;;2.00;1.35;;;21.40;60.30;;;;;;5045852;28;20463;-50
2022/10/21 11:59:14;;;;;;;2.78;1.80;;;21.40;60.30;;;;;;5043160;28;20036;-47
2022/10/21 12:01:49;;;;;;;3.75;1.73;;;21.40;60.30;;;;;;5045946;28;20091;-52
2022/10/21 12:04:35;;;;;;;4.47;2.13;;;21.40;60.40;;;;;;5043430;28;20033;-49
2022/10/21 12:07:21;;;;;;;2.80;1.67;;;21.40;60.40;;;;;;5044720;28;20385;-49
2022/10/21 12:10:03;;;;;;;2.90;1.80;;;21.40;60.50;;;;;;5044459;28;20056;-49
2022/10/21 12:12:33;;;;;;;4.50;1.70;;;21.40;60.50;;;;;;5044366;28;20033;-50
2022/10/21 12:15:02;;;;;;;3.53;1.60;;;21.50;60.70;;;;;;5042738;28;20120;-52
2022/10/21 12:17:33;;;;;;;5.28;1.70;;;21.50;60.70;;;;;;5043836;28;20026;-49
2022/10/21 12:20:06;;;;;;;2.33;1.30;;;21.50;60.70;;;;;;5048042;28;20499;-44
2022/10/21 12:22:33;;;;;;;2.35;1.25;;;21.50;61.00;;;;;;5045709;28;20029;-46
2022/10/21 12:25:15;;;;;;;3.90;1.95;;;21.50;61.30;;;;;;5043169;28;20033;-48
2022/10/21 12:27:50;;;;;;;3.00;1.83;;;21.50;61.60;;;;;;5045496;28;20036;-54
2022/10/21 12:30:20;;;;;;;2.65;1.48;;;21.50;61.80;;;;;;5046228;28;20102;-54
2022/10/21 12:33:13;;;;;;;2.33;1.42;;;21.50;61.90;;;;;;5044266;28;20029;-52
2022/10/21 12:35:45;;;;;;;3.53;1.30;;;21.50;62.10;;;;;;5046754;28;20051;-52
2022/10/21 12:38:46;;;;;;;2.47;1.50;;;21.50;62.10;;;;;;5044916;28;20057;-55
2022/10/21 12:41:27;;;;;;;3.55;1.25;;;21.50;62.20;;;;;;5044457;28;20088;-54
2022/10/21 12:43:57;;;;;;;2.75;1.55;;;21.60;62.40;;;;;;5045647;28;20340;-53
2022/10/21 12:46:29;;;;;;;2.53;1.40;;;21.60;62.30;;;;;;5041441;28;20025;-50
2022/10/21 12:48:58;;;;;;;2.10;1.50;;;21.60;62.30;;;;;;5044977;28;20026;-50
2022/10/21 12:51:31;;;;;;;4.28;1.30;;;21.60;62.20;;;;;;5044170;28;20119;-49
2022/10/21 12:54:11;;;;;;;2.15;1.23;;;21.60;62.10;;;;;;5047689;28;20029;-50
2022/10/21 12:57:02;;;;;;;2.53;1.33;;;21.60;62.00;;;;;;5052705;28;20088;-49
2022/10/21 12:59:32;;;;;;;3.85;1.40;;;21.70;62.00;;;;;;5046494;28;20056;-49
2022/10/21 13:02:23;;;;;;;5.57;1.48;;;21.70;61.90;;;;;;5043489;28;20135;-55
2022/10/21 13:04:52;;;;;;;2.78;1.33;;;21.70;61.90;;;;;;5031744;28;20029;-55
2022/10/21 13:07:18;;;;;;;3.17;1.30;;;21.70;61.90;;;;;;5042664;28;20032;-56
2022/10/21 13:09:50;;;;;;;2.55;1.30;;;21.70;61.90;;;;;;5043566;28;20105;-55
2022/10/21 13:12:29;;;;;;;2.33;1.20;;;21.70;61.80;;;;;;5049182;28;20029;-53